sensor_id;sensor_type;location;lat;lon;timestamp;P1;durP1;ratioP1;P2;durP2;ratioP2
67861;SDS011;54665;51.462;6.698;2023-11-19T00:00:48;15.40;;;6.77;;
67861;SDS011;54665;51.462;6.698;2023-11-19T00:02:49;13.60;;;6.50;;
67861;SDS011;54665;51.462;6.698;2023-11-19T00:04:49;16.17;;;6.70;;
67861;SDS011;54665;51.462;6.698;2023-11-19T00:06:49;12.40;;;5.80;;
67861;SDS011;54665;51.462;6.698;2023-11-19T00:08:50;14.67;;;6.63;;
67861;SDS011;54665;51.462;6.698;2023-11-19T00:10:50;14.13;;;6.00;;
67861;SDS011;54665;51.462;6.698;2023-11-19T00:12:50;16.05;;;6.20;;
67861;SDS011;54665;51.462;6.698;2023-11-19T00:14:51;14.43;;;6.50;;
67861;SDS011;54665;51.462;6.698;2023-11-19T00:16:51;11.80;;;4.23;;
67861;SDS011;54665;51.462;6.698;2023-11-19T00:18:51;14.43;;;5.87;;
67861;SDS011;54665;51.462;6.698;2023-11-19T00:20:52;16.30;;;6.30;;
67861;SDS011;54665;51.462;6.698;2023-11-19T00:22:52;13.48;;;6.25;;
67861;SDS011;54665;51.462;6.698;2023-11-19T00:24:52;11.07;;;4.43;;
67861;SDS011;54665;51.462;6.698;2023-11-19T00:26:53;13.40;;;5.80;;
67861;SDS011;54665;51.462;6.698;2023-11-19T00:28:53;17.80;;;6.37;;
67861;SDS011;54665;51.462;6.698;2023-11-19T00:30:53;13.47;;;5.47;;
67861;SDS011;54665;51.462;6.698;2023-11-19T00:32:54;14.57;;;6.67;;
67861;SDS011;54665;51.462;6.698;2023-11-19T00:34:54;15.57;;;5.88;;
67861;SDS011;54665;51.462;6.698;2023-11-19T00:36:55;14.63;;;6.40;;
67861;SDS011;54665;51.462;6.698;2023-11-19T00:38:55;13.53;;;5.90;;
67861;SDS011;54665;51.462;6.698;2023-11-19T00:40:55;12.57;;;6.07;;
67861;SDS011;54665;51.462;6.698;2023-11-19T00:42:56;11.60;;;5.03;;
67861;SDS011;54665;51.462;6.698;2023-11-19T00:44:56;14.27;;;5.97;;
67861;SDS011;54665;51.462;6.698;2023-11-19T00:46:56;12.40;;;5.87;;
67861;SDS011;54665;51.462;6.698;2023-11-19T00:48:57;14.67;;;6.10;;
67861;SDS011;54665;51.462;6.698;2023-11-19T00:50:57;11.87;;;5.53;;
67861;SDS011;54665;51.462;6.698;2023-11-19T00:52:57;12.33;;;5.47;;
67861;SDS011;54665;51.462;6.698;2023-11-19T00:54:58;13.53;;;5.60;;
67861;SDS011;54665;51.462;6.698;2023-11-19T00:56:58;11.67;;;5.67;;
67861;SDS011;54665;51.462;6.698;2023-11-19T00:58:59;12.97;;;5.53;;
67861;SDS011;54665;51.462;6.698;2023-11-19T01:00:59;12.87;;;5.93;;
67861;SDS011;54665;51.462;6.698;2023-11-19T01:02:59;14.40;;;5.93;;
67861;SDS011;54665;51.462;6.698;2023-11-19T01:04:59;11.07;;;4.63;;
67861;SDS011;54665;51.462;6.698;2023-11-19T01:07:01;11.87;;;5.03;;
67861;SDS011;54665;51.462;6.698;2023-11-19T01:09:02;11.25;;;5.32;;
67861;SDS011;54665;51.462;6.698;2023-11-19T01:11:02;13.60;;;5.57;;
67861;SDS011;54665;51.462;6.698;2023-11-19T01:13:03;11.88;;;5.07;;
67861;SDS011;54665;51.462;6.698;2023-11-19T01:15:04;11.80;;;5.40;;
67861;SDS011;54665;51.462;6.698;2023-11-19T01:17:05;11.65;;;5.20;;
67861;SDS011;54665;51.462;6.698;2023-11-19T01:19:06;10.43;;;4.53;;
67861;SDS011;54665;51.462;6.698;2023-11-19T01:21:07;10.03;;;5.03;;
67861;SDS011;54665;51.462;6.698;2023-11-19T01:23:07;10.23;;;4.68;;
67861;SDS011;54665;51.462;6.698;2023-11-19T01:25:07;8.40;;;3.70;;
67861;SDS011;54665;51.462;6.698;2023-11-19T01:27:08;11.67;;;4.60;;
67861;SDS011;54665;51.462;6.698;2023-11-19T01:29:08;10.20;;;4.10;;
67861;SDS011;54665;51.462;6.698;2023-11-19T01:31:08;10.67;;;4.87;;
67861;SDS011;54665;51.462;6.698;2023-11-19T01:33:09;9.73;;;4.70;;
67861;SDS011;54665;51.462;6.698;2023-11-19T01:35:10;10.60;;;5.03;;
67861;SDS011;54665;51.462;6.698;2023-11-19T01:37:10;11.15;;;4.50;;
67861;SDS011;54665;51.462;6.698;2023-11-19T01:39:11;9.17;;;4.60;;
67861;SDS011;54665;51.462;6.698;2023-11-19T01:41:11;9.87;;;4.53;;
67861;SDS011;54665;51.462;6.698;2023-11-19T01:43:11;9.77;;;4.40;;
67861;SDS011;54665;51.462;6.698;2023-11-19T01:45:16;11.67;;;4.30;;
67861;SDS011;54665;51.462;6.698;2023-11-19T01:47:30;9.27;;;4.28;;
67861;SDS011;54665;51.462;6.698;2023-11-19T01:49:30;8.85;;;4.30;;
67861;SDS011;54665;51.462;6.698;2023-11-19T01:51:32;9.47;;;4.40;;
67861;SDS011;54665;51.462;6.698;2023-11-19T01:53:32;8.82;;;4.00;;
67861;SDS011;54665;51.462;6.698;2023-11-19T01:55:34;7.00;;;3.80;;
67861;SDS011;54665;51.462;6.698;2023-11-19T01:57:35;8.32;;;3.97;;
67861;SDS011;54665;51.462;6.698;2023-11-19T01:59:37;7.85;;;3.90;;
67861;SDS011;54665;51.462;6.698;2023-11-19T02:01:37;7.20;;;4.10;;
67861;SDS011;54665;51.462;6.698;2023-11-19T02:03:37;8.60;;;4.20;;
67861;SDS011;54665;51.462;6.698;2023-11-19T02:05:38;9.20;;;4.27;;
67861;SDS011;54665;51.462;6.698;2023-11-19T02:07:39;6.95;;;3.67;;
67861;SDS011;54665;51.462;6.698;2023-11-19T02:09:43;10.33;;;4.60;;
67861;SDS011;54665;51.462;6.698;2023-11-19T02:11:44;8.15;;;4.00;;
67861;SDS011;54665;51.462;6.698;2023-11-19T02:13:47;11.53;;;4.20;;
67861;SDS011;54665;51.462;6.698;2023-11-19T02:15:47;7.18;;;3.90;;
67861;SDS011;54665;51.462;6.698;2023-11-19T02:17:48;11.53;;;3.87;;
67861;SDS011;54665;51.462;6.698;2023-11-19T02:19:48;7.77;;;3.57;;
67861;SDS011;54665;51.462;6.698;2023-11-19T02:21:48;12.37;;;4.03;;
67861;SDS011;54665;51.462;6.698;2023-11-19T02:23:49;8.00;;;2.47;;
67861;SDS011;54665;51.462;6.698;2023-11-19T02:25:54;10.02;;;3.30;;
67861;SDS011;54665;51.462;6.698;2023-11-19T02:27:57;10.07;;;3.40;;
67861;SDS011;54665;51.462;6.698;2023-11-19T02:29:59;10.77;;;3.08;;
67861;SDS011;54665;51.462;6.698;2023-11-19T02:32:00;7.57;;;2.80;;
67861;SDS011;54665;51.462;6.698;2023-11-19T02:34:00;8.85;;;3.03;;
67861;SDS011;54665;51.462;6.698;2023-11-19T02:36:00;10.50;;;2.50;;
67861;SDS011;54665;51.462;6.698;2023-11-19T02:38:01;6.73;;;2.60;;
67861;SDS011;54665;51.462;6.698;2023-11-19T02:40:01;8.67;;;2.87;;
67861;SDS011;54665;51.462;6.698;2023-11-19T02:42:02;8.38;;;2.50;;
67861;SDS011;54665;51.462;6.698;2023-11-19T02:44:02;10.33;;;1.83;;
67861;SDS011;54665;51.462;6.698;2023-11-19T02:46:03;7.40;;;2.40;;
67861;SDS011;54665;51.462;6.698;2023-11-19T02:48:04;9.55;;;2.80;;
67861;SDS011;54665;51.462;6.698;2023-11-19T02:50:04;7.80;;;2.40;;
67861;SDS011;54665;51.462;6.698;2023-11-19T02:52:05;9.50;;;2.75;;
67861;SDS011;54665;51.462;6.698;2023-11-19T02:54:06;6.67;;;1.73;;
67861;SDS011;54665;51.462;6.698;2023-11-19T02:56:06;7.60;;;2.27;;
67861;SDS011;54665;51.462;6.698;2023-11-19T02:58:08;11.18;;;2.42;;
67861;SDS011;54665;51.462;6.698;2023-11-19T03:00:08;11.60;;;3.10;;
67861;SDS011;54665;51.462;6.698;2023-11-19T03:02:09;11.33;;;2.77;;
67861;SDS011;54665;51.462;6.698;2023-11-19T03:04:10;8.80;;;2.63;;
67861;SDS011;54665;51.462;6.698;2023-11-19T03:06:10;12.07;;;2.83;;
67861;SDS011;54665;51.462;6.698;2023-11-19T03:08:10;9.37;;;2.70;;
67861;SDS011;54665;51.462;6.698;2023-11-19T03:10:10;8.03;;;2.60;;
67861;SDS011;54665;51.462;6.698;2023-11-19T03:12:11;10.70;;;2.70;;
67861;SDS011;54665;51.462;6.698;2023-11-19T03:14:12;9.52;;;2.60;;
67861;SDS011;54665;51.462;6.698;2023-11-19T03:16:12;11.57;;;2.70;;
67861;SDS011;54665;51.462;6.698;2023-11-19T03:18:13;11.23;;;2.30;;
67861;SDS011;54665;51.462;6.698;2023-11-19T03:20:13;11.57;;;2.33;;
67861;SDS011;54665;51.462;6.698;2023-11-19T03:22:14;9.23;;;2.40;;
67861;SDS011;54665;51.462;6.698;2023-11-19T03:24:14;7.63;;;2.03;;
67861;SDS011;54665;51.462;6.698;2023-11-19T03:26:14;13.47;;;2.90;;
67861;SDS011;54665;51.462;6.698;2023-11-19T03:28:15;9.30;;;2.10;;
67861;SDS011;54665;51.462;6.698;2023-11-19T03:30:15;12.47;;;2.30;;
67861;SDS011;54665;51.462;6.698;2023-11-19T03:32:15;11.30;;;2.20;;
67861;SDS011;54665;51.462;6.698;2023-11-19T03:34:16;14.07;;;2.80;;
67861;SDS011;54665;51.462;6.698;2023-11-19T03:36:16;11.57;;;2.17;;
67861;SDS011;54665;51.462;6.698;2023-11-19T03:38:16;8.93;;;2.33;;
67861;SDS011;54665;51.462;6.698;2023-11-19T03:40:17;14.47;;;2.60;;
67861;SDS011;54665;51.462;6.698;2023-11-19T03:42:19;10.70;;;2.57;;
67861;SDS011;54665;51.462;6.698;2023-11-19T03:44:19;13.75;;;2.53;;
67861;SDS011;54665;51.462;6.698;2023-11-19T03:46:20;14.40;;;2.40;;
67861;SDS011;54665;51.462;6.698;2023-11-19T03:48:21;12.63;;;2.42;;
67861;SDS011;54665;51.462;6.698;2023-11-19T03:50:24;16.33;;;2.58;;
67861;SDS011;54665;51.462;6.698;2023-11-19T03:52:24;13.17;;;2.33;;
67861;SDS011;54665;51.462;6.698;2023-11-19T03:54:24;10.43;;;2.17;;
67861;SDS011;54665;51.462;6.698;2023-11-19T03:56:25;18.10;;;2.73;;
67861;SDS011;54665;51.462;6.698;2023-11-19T03:58:25;12.47;;;2.20;;
67861;SDS011;54665;51.462;6.698;2023-11-19T04:00:25;12.50;;;2.60;;
67861;SDS011;54665;51.462;6.698;2023-11-19T04:02:25;9.50;;;2.03;;
67861;SDS011;54665;51.462;6.698;2023-11-19T04:04:26;12.47;;;2.10;;
67861;SDS011;54665;51.462;6.698;2023-11-19T04:06:29;15.10;;;2.30;;
67861;SDS011;54665;51.462;6.698;2023-11-19T04:08:29;14.85;;;2.17;;
67861;SDS011;54665;51.462;6.698;2023-11-19T04:10:29;12.30;;;2.10;;
67861;SDS011;54665;51.462;6.698;2023-11-19T04:12:30;12.85;;;2.30;;
67861;SDS011;54665;51.462;6.698;2023-11-19T04:14:31;8.60;;;2.20;;
67861;SDS011;54665;51.462;6.698;2023-11-19T04:16:31;13.97;;;2.00;;
67861;SDS011;54665;51.462;6.698;2023-11-19T04:18:32;12.85;;;2.45;;
67861;SDS011;54665;51.462;6.698;2023-11-19T04:20:32;11.33;;;2.20;;
67861;SDS011;54665;51.462;6.698;2023-11-19T04:22:35;17.07;;;2.60;;
67861;SDS011;54665;51.462;6.698;2023-11-19T04:24:36;14.70;;;2.40;;
67861;SDS011;54665;51.462;6.698;2023-11-19T04:26:42;16.48;;;2.40;;
67861;SDS011;54665;51.462;6.698;2023-11-19T04:28:44;16.27;;;2.47;;
67861;SDS011;54665;51.462;6.698;2023-11-19T04:30:45;17.25;;;2.92;;
67861;SDS011;54665;51.462;6.698;2023-11-19T04:32:46;11.93;;;2.23;;
67861;SDS011;54665;51.462;6.698;2023-11-19T04:34:46;12.63;;;2.43;;
67861;SDS011;54665;51.462;6.698;2023-11-19T04:36:46;14.20;;;2.60;;
67861;SDS011;54665;51.462;6.698;2023-11-19T04:38:46;15.97;;;2.90;;
67861;SDS011;54665;51.462;6.698;2023-11-19T04:40:47;17.45;;;3.22;;
67861;SDS011;54665;51.462;6.698;2023-11-19T04:42:47;15.00;;;2.73;;
67861;SDS011;54665;51.462;6.698;2023-11-19T04:44:47;16.87;;;2.43;;
67861;SDS011;54665;51.462;6.698;2023-11-19T04:46:48;13.13;;;2.37;;
67861;SDS011;54665;51.462;6.698;2023-11-19T04:48:48;14.63;;;2.33;;
67861;SDS011;54665;51.462;6.698;2023-11-19T04:50:48;17.17;;;2.93;;
67861;SDS011;54665;51.462;6.698;2023-11-19T04:52:49;19.90;;;2.28;;
67861;SDS011;54665;51.462;6.698;2023-11-19T04:54:49;18.07;;;2.80;;
67861;SDS011;54665;51.462;6.698;2023-11-19T04:56:49;20.60;;;2.67;;
67861;SDS011;54665;51.462;6.698;2023-11-19T04:58:50;16.23;;;2.17;;
67861;SDS011;54665;51.462;6.698;2023-11-19T05:00:50;20.07;;;2.53;;
67861;SDS011;54665;51.462;6.698;2023-11-19T05:02:51;13.83;;;2.30;;
67861;SDS011;54665;51.462;6.698;2023-11-19T05:04:51;12.95;;;2.10;;
67861;SDS011;54665;51.462;6.698;2023-11-19T05:06:51;10.37;;;2.07;;
67861;SDS011;54665;51.462;6.698;2023-11-19T05:08:51;15.07;;;2.33;;
67861;SDS011;54665;51.462;6.698;2023-11-19T05:10:52;15.17;;;2.67;;
67861;SDS011;54665;51.462;6.698;2023-11-19T05:12:52;11.23;;;1.80;;
67861;SDS011;54665;51.462;6.698;2023-11-19T05:14:52;10.17;;;2.03;;
67861;SDS011;54665;51.462;6.698;2023-11-19T05:16:53;11.97;;;2.07;;
67861;SDS011;54665;51.462;6.698;2023-11-19T05:18:53;14.17;;;2.17;;
67861;SDS011;54665;51.462;6.698;2023-11-19T05:20:53;19.10;;;2.70;;
67861;SDS011;54665;51.462;6.698;2023-11-19T05:22:54;14.98;;;2.60;;
67861;SDS011;54665;51.462;6.698;2023-11-19T05:24:54;10.60;;;2.10;;
67861;SDS011;54665;51.462;6.698;2023-11-19T05:26:54;16.37;;;2.10;;
67861;SDS011;54665;51.462;6.698;2023-11-19T05:28:54;8.60;;;1.60;;
67861;SDS011;54665;51.462;6.698;2023-11-19T05:30:55;14.30;;;2.27;;
67861;SDS011;54665;51.462;6.698;2023-11-19T05:32:55;12.23;;;2.00;;
67861;SDS011;54665;51.462;6.698;2023-11-19T05:34:55;17.47;;;2.57;;
67861;SDS011;54665;51.462;6.698;2023-11-19T05:36:58;11.95;;;1.75;;
67861;SDS011;54665;51.462;6.698;2023-11-19T05:38:58;12.57;;;2.10;;
67861;SDS011;54665;51.462;6.698;2023-11-19T05:40:59;14.50;;;2.17;;
67861;SDS011;54665;51.462;6.698;2023-11-19T05:42:59;13.90;;;1.63;;
67861;SDS011;54665;51.462;6.698;2023-11-19T05:44:59;12.07;;;2.10;;
67861;SDS011;54665;51.462;6.698;2023-11-19T05:47:00;10.73;;;1.97;;
67861;SDS011;54665;51.462;6.698;2023-11-19T05:49:00;12.57;;;1.60;;
67861;SDS011;54665;51.462;6.698;2023-11-19T05:51:00;21.83;;;2.63;;
67861;SDS011;54665;51.462;6.698;2023-11-19T05:53:00;17.30;;;2.50;;
67861;SDS011;54665;51.462;6.698;2023-11-19T05:55:01;13.53;;;2.37;;
67861;SDS011;54665;51.462;6.698;2023-11-19T05:57:01;21.97;;;2.67;;
67861;SDS011;54665;51.462;6.698;2023-11-19T05:59:01;16.70;;;2.87;;
67861;SDS011;54665;51.462;6.698;2023-11-19T06:01:02;10.50;;;2.00;;
67861;SDS011;54665;51.462;6.698;2023-11-19T06:03:05;15.20;;;2.10;;
67861;SDS011;54665;51.462;6.698;2023-11-19T06:05:05;12.93;;;2.00;;
67861;SDS011;54665;51.462;6.698;2023-11-19T06:07:06;16.15;;;2.60;;
67861;SDS011;54665;51.462;6.698;2023-11-19T06:09:06;18.13;;;3.07;;
67861;SDS011;54665;51.462;6.698;2023-11-19T06:11:07;13.17;;;2.57;;
67861;SDS011;54665;51.462;6.698;2023-11-19T06:13:07;14.70;;;2.23;;
67861;SDS011;54665;51.462;6.698;2023-11-19T06:15:08;22.90;;;2.70;;
67861;SDS011;54665;51.462;6.698;2023-11-19T06:17:08;11.73;;;2.15;;
67861;SDS011;54665;51.462;6.698;2023-11-19T06:19:09;17.80;;;2.93;;
67861;SDS011;54665;51.462;6.698;2023-11-19T06:21:09;18.07;;;2.23;;
67861;SDS011;54665;51.462;6.698;2023-11-19T06:23:13;14.90;;;2.25;;
67861;SDS011;54665;51.462;6.698;2023-11-19T06:25:13;16.33;;;1.93;;
67861;SDS011;54665;51.462;6.698;2023-11-19T06:27:13;22.43;;;2.80;;
67861;SDS011;54665;51.462;6.698;2023-11-19T06:29:14;13.10;;;2.20;;
67861;SDS011;54665;51.462;6.698;2023-11-19T06:31:14;12.77;;;2.77;;
67861;SDS011;54665;51.462;6.698;2023-11-19T06:33:14;12.17;;;1.90;;
67861;SDS011;54665;51.462;6.698;2023-11-19T06:35:14;12.07;;;2.30;;
67861;SDS011;54665;51.462;6.698;2023-11-19T06:37:15;16.90;;;2.20;;
67861;SDS011;54665;51.462;6.698;2023-11-19T06:39:15;9.77;;;1.80;;
67861;SDS011;54665;51.462;6.698;2023-11-19T06:41:16;16.40;;;2.60;;
67861;SDS011;54665;51.462;6.698;2023-11-19T06:43:16;10.17;;;2.17;;
67861;SDS011;54665;51.462;6.698;2023-11-19T06:45:16;15.73;;;2.17;;
67861;SDS011;54665;51.462;6.698;2023-11-19T06:47:17;17.27;;;1.95;;
67861;SDS011;54665;51.462;6.698;2023-11-19T06:49:17;15.43;;;2.07;;
67861;SDS011;54665;51.462;6.698;2023-11-19T06:51:18;16.10;;;2.20;;
67861;SDS011;54665;51.462;6.698;2023-11-19T06:53:18;14.73;;;2.90;;
67861;SDS011;54665;51.462;6.698;2023-11-19T06:55:18;11.90;;;1.67;;
67861;SDS011;54665;51.462;6.698;2023-11-19T06:57:19;12.60;;;1.80;;
67861;SDS011;54665;51.462;6.698;2023-11-19T06:59:19;13.77;;;2.30;;
67861;SDS011;54665;51.462;6.698;2023-11-19T07:01:19;17.77;;;2.30;;
67861;SDS011;54665;51.462;6.698;2023-11-19T07:03:20;22.83;;;2.77;;
67861;SDS011;54665;51.462;6.698;2023-11-19T07:05:20;14.43;;;1.60;;
67861;SDS011;54665;51.462;6.698;2023-11-19T07:07:20;20.40;;;2.40;;
67861;SDS011;54665;51.462;6.698;2023-11-19T07:09:21;16.92;;;2.35;;
67861;SDS011;54665;51.462;6.698;2023-11-19T07:11:21;15.30;;;2.07;;
67861;SDS011;54665;51.462;6.698;2023-11-19T07:13:21;15.97;;;1.93;;
67861;SDS011;54665;51.462;6.698;2023-11-19T07:15:21;14.83;;;1.87;;
67861;SDS011;54665;51.462;6.698;2023-11-19T07:17:22;13.67;;;2.10;;
67861;SDS011;54665;51.462;6.698;2023-11-19T07:19:22;15.87;;;2.10;;
67861;SDS011;54665;51.462;6.698;2023-11-19T07:21:22;19.90;;;2.97;;
67861;SDS011;54665;51.462;6.698;2023-11-19T07:23:23;16.37;;;2.10;;
67861;SDS011;54665;51.462;6.698;2023-11-19T07:25:23;19.77;;;1.58;;
67861;SDS011;54665;51.462;6.698;2023-11-19T07:27:23;17.40;;;2.13;;
67861;SDS011;54665;51.462;6.698;2023-11-19T07:29:24;17.20;;;1.93;;
67861;SDS011;54665;51.462;6.698;2023-11-19T07:31:24;15.03;;;1.80;;
67861;SDS011;54665;51.462;6.698;2023-11-19T07:33:24;17.37;;;1.77;;
67861;SDS011;54665;51.462;6.698;2023-11-19T07:35:24;14.03;;;2.10;;
67861;SDS011;54665;51.462;6.698;2023-11-19T07:37:25;17.73;;;2.33;;
67861;SDS011;54665;51.462;6.698;2023-11-19T07:39:25;16.27;;;2.28;;
67861;SDS011;54665;51.462;6.698;2023-11-19T07:41:26;18.63;;;2.10;;
67861;SDS011;54665;51.462;6.698;2023-11-19T07:43:26;16.23;;;2.00;;
67861;SDS011;54665;51.462;6.698;2023-11-19T07:45:26;16.53;;;2.10;;
67861;SDS011;54665;51.462;6.698;2023-11-19T07:47:27;19.10;;;2.37;;
67861;SDS011;54665;51.462;6.698;2023-11-19T07:49:27;21.93;;;2.23;;
67861;SDS011;54665;51.462;6.698;2023-11-19T07:51:27;14.33;;;2.10;;
67861;SDS011;54665;51.462;6.698;2023-11-19T07:53:27;16.17;;;2.40;;
67861;SDS011;54665;51.462;6.698;2023-11-19T07:55:29;15.70;;;2.38;;
67861;SDS011;54665;51.462;6.698;2023-11-19T07:57:29;17.63;;;2.50;;
67861;SDS011;54665;51.462;6.698;2023-11-19T07:59:29;13.18;;;1.85;;
67861;SDS011;54665;51.462;6.698;2023-11-19T08:01:30;15.43;;;2.43;;
67861;SDS011;54665;51.462;6.698;2023-11-19T08:03:30;18.23;;;2.13;;
67861;SDS011;54665;51.462;6.698;2023-11-19T08:05:31;18.13;;;2.30;;
67861;SDS011;54665;51.462;6.698;2023-11-19T08:07:34;17.83;;;2.42;;
67861;SDS011;54665;51.462;6.698;2023-11-19T08:09:34;19.23;;;2.13;;
67861;SDS011;54665;51.462;6.698;2023-11-19T08:11:34;14.83;;;2.03;;
67861;SDS011;54665;51.462;6.698;2023-11-19T08:13:35;14.67;;;1.97;;
67861;SDS011;54665;51.462;6.698;2023-11-19T08:15:35;14.27;;;2.13;;
67861;SDS011;54665;51.462;6.698;2023-11-19T08:17:36;18.95;;;2.38;;
67861;SDS011;54665;51.462;6.698;2023-11-19T08:19:36;15.57;;;2.20;;
67861;SDS011;54665;51.462;6.698;2023-11-19T08:21:37;16.87;;;2.27;;
67861;SDS011;54665;51.462;6.698;2023-11-19T08:23:37;17.63;;;2.47;;
67861;SDS011;54665;51.462;6.698;2023-11-19T08:25:37;16.87;;;2.13;;
67861;SDS011;54665;51.462;6.698;2023-11-19T08:27:38;17.73;;;2.00;;
67861;SDS011;54665;51.462;6.698;2023-11-19T08:29:38;16.90;;;2.10;;
67861;SDS011;54665;51.462;6.698;2023-11-19T08:31:38;12.43;;;2.10;;
67861;SDS011;54665;51.462;6.698;2023-11-19T08:33:39;20.93;;;2.13;;
67861;SDS011;54665;51.462;6.698;2023-11-19T08:35:39;20.88;;;2.50;;
67861;SDS011;54665;51.462;6.698;2023-11-19T08:37:39;16.90;;;1.87;;
67861;SDS011;54665;51.462;6.698;2023-11-19T08:39:39;16.83;;;2.20;;
67861;SDS011;54665;51.462;6.698;2023-11-19T08:41:43;13.23;;;1.67;;
67861;SDS011;54665;51.462;6.698;2023-11-19T08:43:43;12.88;;;1.70;;
67861;SDS011;54665;51.462;6.698;2023-11-19T08:45:43;16.37;;;1.70;;
67861;SDS011;54665;51.462;6.698;2023-11-19T08:47:44;16.27;;;2.37;;
67861;SDS011;54665;51.462;6.698;2023-11-19T08:49:44;23.43;;;2.10;;
67861;SDS011;54665;51.462;6.698;2023-11-19T08:51:45;18.33;;;2.35;;
67861;SDS011;54665;51.462;6.698;2023-11-19T08:53:45;17.60;;;2.33;;
67861;SDS011;54665;51.462;6.698;2023-11-19T08:55:46;13.60;;;1.90;;
67861;SDS011;54665;51.462;6.698;2023-11-19T08:57:46;20.43;;;2.33;;
67861;SDS011;54665;51.462;6.698;2023-11-19T08:59:46;17.73;;;2.13;;
67861;SDS011;54665;51.462;6.698;2023-11-19T09:01:47;20.13;;;2.63;;
67861;SDS011;54665;51.462;6.698;2023-11-19T09:03:47;16.13;;;2.67;;
67861;SDS011;54665;51.462;6.698;2023-11-19T09:05:47;11.60;;;2.00;;
67861;SDS011;54665;51.462;6.698;2023-11-19T09:07:48;13.73;;;1.97;;
67861;SDS011;54665;51.462;6.698;2023-11-19T09:09:48;15.60;;;2.10;;
67861;SDS011;54665;51.462;6.698;2023-11-19T09:11:48;8.93;;;1.43;;
67861;SDS011;54665;51.462;6.698;2023-11-19T09:13:48;19.03;;;2.30;;
67861;SDS011;54665;51.462;6.698;2023-11-19T09:15:49;18.48;;;2.40;;
67861;SDS011;54665;51.462;6.698;2023-11-19T09:17:49;15.67;;;2.17;;
67861;SDS011;54665;51.462;6.698;2023-11-19T09:19:49;16.87;;;2.67;;
67861;SDS011;54665;51.462;6.698;2023-11-19T09:21:50;14.10;;;2.30;;
67861;SDS011;54665;51.462;6.698;2023-11-19T09:23:50;13.17;;;2.20;;
67861;SDS011;54665;51.462;6.698;2023-11-19T09:25:50;15.40;;;1.87;;
67861;SDS011;54665;51.462;6.698;2023-11-19T09:27:51;12.95;;;1.45;;
67861;SDS011;54665;51.462;6.698;2023-11-19T09:29:51;13.30;;;2.00;;
67861;SDS011;54665;51.462;6.698;2023-11-19T09:31:52;13.33;;;2.23;;
67861;SDS011;54665;51.462;6.698;2023-11-19T09:33:52;16.07;;;1.87;;
67861;SDS011;54665;51.462;6.698;2023-11-19T09:35:52;15.50;;;2.50;;
67861;SDS011;54665;51.462;6.698;2023-11-19T09:37:52;14.50;;;2.13;;
67861;SDS011;54665;51.462;6.698;2023-11-19T09:39:53;16.87;;;2.53;;
67861;SDS011;54665;51.462;6.698;2023-11-19T09:41:53;12.40;;;1.90;;
67861;SDS011;54665;51.462;6.698;2023-11-19T09:43:53;15.20;;;1.98;;
67861;SDS011;54665;51.462;6.698;2023-11-19T09:45:54;14.97;;;2.30;;
67861;SDS011;54665;51.462;6.698;2023-11-19T09:47:56;18.02;;;2.30;;
67861;SDS011;54665;51.462;6.698;2023-11-19T09:49:57;13.83;;;2.20;;
67861;SDS011;54665;51.462;6.698;2023-11-19T09:51:57;21.37;;;2.47;;
67861;SDS011;54665;51.462;6.698;2023-11-19T09:53:58;16.63;;;2.00;;
67861;SDS011;54665;51.462;6.698;2023-11-19T09:56:01;16.47;;;2.10;;
67861;SDS011;54665;51.462;6.698;2023-11-19T09:58:02;10.38;;;1.70;;
67861;SDS011;54665;51.462;6.698;2023-11-19T10:00:03;14.43;;;2.87;;
67861;SDS011;54665;51.462;6.698;2023-11-19T10:02:04;11.90;;;1.50;;
67861;SDS011;54665;51.462;6.698;2023-11-19T10:04:06;16.67;;;2.38;;
67861;SDS011;54665;51.462;6.698;2023-11-19T10:06:07;17.70;;;2.43;;
67861;SDS011;54665;51.462;6.698;2023-11-19T10:08:07;13.18;;;2.13;;
67861;SDS011;54665;51.462;6.698;2023-11-19T10:10:08;12.77;;;2.00;;
67861;SDS011;54665;51.462;6.698;2023-11-19T10:12:08;11.33;;;1.80;;
67861;SDS011;54665;51.462;6.698;2023-11-19T10:14:09;14.57;;;1.93;;
67861;SDS011;54665;51.462;6.698;2023-11-19T10:16:09;12.68;;;1.92;;
67861;SDS011;54665;51.462;6.698;2023-11-19T10:18:13;19.73;;;2.50;;
67861;SDS011;54665;51.462;6.698;2023-11-19T10:20:14;18.73;;;2.42;;
67861;SDS011;54665;51.462;6.698;2023-11-19T10:22:14;15.87;;;2.90;;
67861;SDS011;54665;51.462;6.698;2023-11-19T10:24:15;16.40;;;2.20;;
67861;SDS011;54665;51.462;6.698;2023-11-19T10:26:15;16.93;;;2.40;;
67861;SDS011;54665;51.462;6.698;2023-11-19T10:28:16;11.80;;;1.88;;
67861;SDS011;54665;51.462;6.698;2023-11-19T10:30:23;15.60;;;2.10;;
67861;SDS011;54665;51.462;6.698;2023-11-19T10:32:27;12.68;;;2.10;;
67861;SDS011;54665;51.462;6.698;2023-11-19T10:34:27;13.50;;;1.93;;
67861;SDS011;54665;51.462;6.698;2023-11-19T10:36:37;15.67;;;1.77;;
67861;SDS011;54665;51.462;6.698;2023-11-19T10:38:38;14.57;;;1.95;;
67861;SDS011;54665;51.462;6.698;2023-11-19T10:40:39;11.80;;;1.73;;
67861;SDS011;54665;51.462;6.698;2023-11-19T10:42:41;15.70;;;2.20;;
67861;SDS011;54665;51.462;6.698;2023-11-19T10:44:41;17.38;;;2.78;;
67861;SDS011;54665;51.462;6.698;2023-11-19T10:46:42;17.03;;;2.37;;
67861;SDS011;54665;51.462;6.698;2023-11-19T10:48:42;15.53;;;2.00;;
67861;SDS011;54665;51.462;6.698;2023-11-19T10:50:43;14.63;;;2.17;;
67861;SDS011;54665;51.462;6.698;2023-11-19T10:52:44;17.63;;;2.50;;
67861;SDS011;54665;51.462;6.698;2023-11-19T10:54:49;11.55;;;2.05;;
67861;SDS011;54665;51.462;6.698;2023-11-19T10:56:54;16.55;;;2.03;;
67861;SDS011;54665;51.462;6.698;2023-11-19T10:58:55;15.10;;;2.20;;
67861;SDS011;54665;51.462;6.698;2023-11-19T11:00:56;13.20;;;1.97;;
67861;SDS011;54665;51.462;6.698;2023-11-19T11:03:01;14.82;;;2.17;;
67861;SDS011;54665;51.462;6.698;2023-11-19T11:05:01;13.65;;;1.77;;
67861;SDS011;54665;51.462;6.698;2023-11-19T11:07:02;14.83;;;1.57;;
67861;SDS011;54665;51.462;6.698;2023-11-19T11:09:03;14.47;;;2.00;;
67861;SDS011;54665;51.462;6.698;2023-11-19T11:11:03;17.65;;;2.03;;
67861;SDS011;54665;51.462;6.698;2023-11-19T11:13:05;14.73;;;1.80;;
67861;SDS011;54665;51.462;6.698;2023-11-19T11:15:06;13.13;;;1.80;;
67861;SDS011;54665;51.462;6.698;2023-11-19T11:17:08;14.27;;;2.17;;
67861;SDS011;54665;51.462;6.698;2023-11-19T11:19:10;13.40;;;1.52;;
67861;SDS011;54665;51.462;6.698;2023-11-19T11:21:14;14.45;;;2.08;;
67861;SDS011;54665;51.462;6.698;2023-11-19T11:28:26;10.32;;;1.55;;
67861;SDS011;54665;51.462;6.698;2023-11-19T11:30:48;14.82;;;2.28;;
67861;SDS011;54665;51.462;6.698;2023-11-19T11:35:34;14.00;;;2.00;;
67861;SDS011;54665;51.462;6.698;2023-11-19T11:38:03;9.73;;;1.50;;
67861;SDS011;54665;51.462;6.698;2023-11-19T11:40:06;12.52;;;2.00;;
67861;SDS011;54665;51.462;6.698;2023-11-19T11:47:05;12.33;;;1.63;;
67861;SDS011;54665;51.462;6.698;2023-11-19T11:49:06;15.20;;;2.20;;
67861;SDS011;54665;51.462;6.698;2023-11-19T11:51:07;9.38;;;1.50;;
67861;SDS011;54665;51.462;6.698;2023-11-19T11:53:13;13.70;;;1.87;;
67861;SDS011;54665;51.462;6.698;2023-11-19T11:55:15;14.23;;;2.22;;
67861;SDS011;54665;51.462;6.698;2023-11-19T11:57:16;11.30;;;1.73;;
67861;SDS011;54665;51.462;6.698;2023-11-19T11:59:19;10.95;;;2.00;;
67861;SDS011;54665;51.462;6.698;2023-11-19T12:01:19;9.30;;;1.73;;
67861;SDS011;54665;51.462;6.698;2023-11-19T12:03:20;13.50;;;2.17;;
67861;SDS011;54665;51.462;6.698;2023-11-19T12:05:22;9.93;;;1.70;;
67861;SDS011;54665;51.462;6.698;2023-11-19T12:07:23;16.85;;;2.22;;
67861;SDS011;54665;51.462;6.698;2023-11-19T12:09:25;11.98;;;1.85;;
67861;SDS011;54665;51.462;6.698;2023-11-19T12:11:25;10.85;;;1.67;;